Terminal Aerodrome Forecast
Issued by NWS Jackson, MS

Current Version | Previous Version | Text Only | Print | Product List | Glossary On
Versions: 1 2 3 4 5 6 7 8 9 10 11 12
000
FTUS44 KJAN 111120
TAFGWO
TAF
KGWO 111120Z 1112/1212 15012G16KT P6SM OVC060
     FM112200 17015G21KT P6SM OVC035
     FM120400 18018G24KT P6SM OVC030
     FM120600 19017G23KT 5SM -RA OVC015
     FM120900 19012KT 4SM RA BR OVC007=

USA.gov is the U.S. government's official web portal to all federal, state and local government web resources and services.